모두
Avenger Fld Airport (Sweetwater, TX) SWW 기상
|
Sweetwater, TX (KSWW)
맑은 하늘
가벼운 바람 |
|
17 °C |
There is no TAF data available at SWW or any nearby airports.
최근 SWW METAR 이력
| Date | Time (CDT) | Flight Rules | Wind Dir. | Speed | Type | Height AGL (ft) | Visibility | Temp (°C) | Temp (°F) | Dew Point (°C) | Dew Point (°F) | Rel. Humid. | Pressure | Density Altitude | Remarks |
|---|---|---|---|---|---|---|---|---|---|---|---|---|---|---|---|
| 06-5월 | 20:55 | VFR | 90° | 9 kt | 10 miles | 17° | 62° | 6° | 42° | 48% | 30.00 in Hg | 3,014 ft | |||
| 06-5월 | 20:15 | VFR | 80° | 9 kt | 10 miles | 19° | 66° | 6° | 42° | 41% | 29.99 in Hg | 3,264 ft | |||
| 06-5월 | 19:55 | VFR | 90° | 12 kt | 10 miles | 20° | 68° | 6° | 42° | 40% | 29.98 in Hg | 3,394 ft | |||
| 06-5월 | 19:35 | VFR | 80° | 12 kt | 10 miles | 21° | 69° | 6° | 42° | 38% | 29.98 in Hg | 3,514 ft | |||
| 06-5월 | 19:15 | VFR | 70° | 11 kt | 10 miles | 21° | 69° | 6° | 42° | 38% | 29.98 in Hg | 3,514 ft | |||
| 06-5월 | 18:55 | VFR | 80° | 9 kt | 10 miles | 20° | 68° | 6° | 42° | 39% | 29.98 in Hg | 3,394 ft | |||
| 06-5월 | 18:35 | VFR | 90° | 10 kt | 10 miles | 21° | 69° | 5° | 41° | 36% | 29.98 in Hg | 3,514 ft | |||
| 06-5월 | 18:15 | VFR | 60° | 9 kt | 10 miles | 21° | 69° | 5° | 41° | 35% | 29.98 in Hg | 3,514 ft | Wind gusting to 14 KT | ||
| 06-5월 | 17:55 | VFR | 70° | 9 kt | 10 miles | 22° | 71° | 5° | 41° | 35% | 29.97 in Hg | 3,644 ft | |||
| 06-5월 | 17:35 | VFR | 90° | 6 kt | 10 miles | 22° | 71° | 5° | 41° | 33% | 29.97 in Hg | 3,644 ft | Wind gusting to 14 KT | ||
| 06-5월 | 17:15 | VFR | 60° | 8 kt | 10 miles | 22° | 71° | 5° | 41° | 34% | 29.97 in Hg | 3,644 ft | Wind gusting to 14 KT | ||
| 06-5월 | 16:55 | VFR | 40° | 6 kt | 10 miles | 22° | 71° | 6° | 42° | 36% | 29.98 in Hg | 3,634 ft | Wind gusting to 14 KT | ||
| 06-5월 | 16:35 | VFR | 40° | 9 kt | 10 miles | 22° | 71° | 6° | 42° | 36% | 29.98 in Hg | 3,634 ft | |||
| 06-5월 | 16:15 | VFR | 70° | 5 kt | 10 miles | 22° | 71° | 6° | 42° | 36% | 29.98 in Hg | 3,634 ft | |||
| 06-5월 | 15:55 | VFR | 70° | 7 kt | 10 miles | 20° | 68° | 6° | 42° | 40% | 29.99 in Hg | 3,384 ft | |||
| 06-5월 | 15:35 | VFR | 70° | 8 kt | 10 miles | 19° | 66° | 6° | 42° | 43% | 29.99 in Hg | 3,264 ft | |||
| 06-5월 | 15:15 | VFR | 40° | 5 kt | 10 miles | 18° | 64° | 6° | 42° | 46% | 30.00 in Hg | 3,134 ft | |||
| 06-5월 | 14:55 | VFR | 40° | 5 kt | 10 miles | 17° | 62° | 7° | 44° | 51% | 30.00 in Hg | 3,014 ft | |||
| 06-5월 | 14:35 | VFR | Calm | 10 miles | 16° | 60° | 6° | 42° | 52% | 30.01 in Hg | 2,884 ft | ||||
| 06-5월 | 14:20 | VFR | 80° | 7 kt | 10 miles | 16° | 60° | 6° | 42° | 52% | 30.02 in Hg | 2,874 ft | |||
| 06-5월 | 13:55 | VFR | 60° | 6 kt | 10 miles | 16° | 60° | 6° | 42° | 54% | 30.03 in Hg | 2,864 ft | |||
| 06-5월 | 13:35 | VFR | 10° | 8 kt | 10 miles | 15° | 59° | 7° | 44° | 56% | 30.03 in Hg | 2,744 ft | |||
| 06-5월 | 13:15 | VFR | 40° | 8 kt | 10 miles | 15° | 59° | 7° | 44° | 57% | 30.03 in Hg | 2,744 ft | |||
| 06-5월 | 13:00 | VFR | 50° | 8 kt | 10 miles | 16° | 60° | 7° | 44° | 57% | 30.03 in Hg | 2,864 ft |
로그인
| 귀하의 브라우저는 지원되지 않습니다.. 브라우저를 업그레이드하세요 |
